Time;durP1;ratioP1;P1;durP2;ratioP2;P2;SDS_P1;SDS_P2;PMS_P1;PMS_P2;Temp;Humidity;BMP_temperature;BMP_pressure;BME280_temperature;BME280_humidity;BME280_pressure;Samples;Min_cycle;Max_cycle;Signal;HPM_P1;HPM_P2
2021/12/27 00:00:26;;;;;;;;;;;21.30;48.10;;;;;;1593454;74;786;-62
2021/12/27 00:02:28;;;;;;;;;;;21.30;48.10;;;;;;1593461;74;1906;-62
2021/12/27 00:04:30;;;;;;;;;;;21.30;48.10;;;;;;1553648;76;789;-63
2021/12/27 00:06:32;;;;;;;;;;;21.30;48.10;;;;;;1577475;75;1132;-63
2021/12/27 00:08:34;;;;;;;;;;;21.30;48.10;;;;;;1577557;75;720;-64
2021/12/27 00:10:35;;;;;;;;;;;21.30;48.00;;;;;;1577319;75;708;-62
2021/12/27 00:12:37;;;;;;;;;;;21.30;48.00;;;;;;1577487;75;817;-62
2021/12/27 00:14:39;;;;;;;;;;;21.30;48.00;;;;;;1577518;75;774;-62
2021/12/27 00:16:41;;;;;;;;;;;21.30;48.10;;;;;;1577357;75;1097;-62
2021/12/27 00:18:43;;;;;;;;;;;21.30;48.10;;;;;;1577528;75;770;-62
2021/12/27 00:20:45;;;;;;;;;;;21.30;48.00;;;;;;1577487;75;664;-62
2021/12/27 00:22:48;;;;;;;;;;;21.30;48.00;;;;;;1577401;75;1927;-63
2021/12/27 00:24:50;;;;;;;;;;;21.30;48.00;;;;;;1577397;75;2027;-62
2021/12/27 00:26:52;;;;;;;;;;;21.30;48.00;;;;;;1577321;75;1129;-62
2021/12/27 00:28:54;;;;;;;;;;;21.30;48.00;;;;;;1577547;75;789;-62
2021/12/27 00:30:57;;;;;;;;;;;21.30;48.00;;;;;;1577415;75;792;-62
2021/12/27 00:32:59;;;;;;;;;;;21.30;48.00;;;;;;1577488;75;721;-62
2021/12/27 00:35:00;;;;;;;;;;;21.30;48.00;;;;;;1577434;75;801;-62
2021/12/27 00:37:03;;;;;;;;;;;21.30;48.10;;;;;;1577409;74;1155;-62
2021/12/27 00:39:05;;;;;;;;;;;21.30;48.00;;;;;;1577427;75;790;-61
2021/12/27 00:41:07;;;;;;;;;;;21.30;48.00;;;;;;1577414;75;780;-62
2021/12/27 00:43:09;;;;;;;;;;;21.30;48.00;;;;;;1577379;75;1938;-62
2021/12/27 00:45:11;;;;;;;;;;;21.30;48.00;;;;;;1577309;75;734;-62
2021/12/27 00:47:13;;;;;;;;;;;21.30;48.00;;;;;;1577378;75;1029;-62
2021/12/27 00:49:15;;;;;;;;;;;21.30;48.00;;;;;;1577409;75;711;-62
2021/12/27 00:51:17;;;;;;;;;;;21.30;48.00;;;;;;1577426;75;738;-62
2021/12/27 00:53:19;;;;;;;;;;;21.30;48.00;;;;;;1577353;75;822;-63
2021/12/27 00:55:21;;;;;;;;;;;21.30;48.00;;;;;;1577245;75;1116;-63
2021/12/27 00:57:23;;;;;;;;;;;21.30;48.00;;;;;;1574712;75;821;-64
2021/12/27 00:59:24;;;;;;;;;;;21.30;48.10;;;;;;1574530;75;810;-62
2021/12/27 01:01:26;;;;;;;;;;;21.30;48.00;;;;;;1574565;75;1938;-62
2021/12/27 01:03:28;;;;;;;;;;;21.30;48.00;;;;;;1574636;75;721;-62
2021/12/27 01:05:30;;;;;;;;;;;21.30;48.00;;;;;;1574490;75;1143;-62
2021/12/27 01:07:32;;;;;;;;;;;21.30;48.00;;;;;;1574673;75;766;-62
2021/12/27 01:12:22;;;;;;;;;;;21.30;48.00;;;;;;1574469;75;871;-62
2021/12/27 01:16:12;;;;;;;;;;;21.30;48.10;;;;;;1574304;75;1105;-62
2021/12/27 01:18:14;;;;;;;;;;;21.30;48.10;;;;;;1574489;75;829;-62
2021/12/27 01:20:17;;;;;;;;;;;21.20;47.90;;;;;;1574549;75;717;-63
2021/12/27 01:22:19;;;;;;;;;;;21.30;48.10;;;;;;1574495;75;1930;-62
2021/12/27 01:24:21;;;;;;;;;;;21.30;48.00;;;;;;1574752;75;792;-62
2021/12/27 01:26:25;;;;;;;;;;;21.30;48.00;;;;;;1574510;75;1132;-62
2021/12/27 01:28:27;;;;;;;;;;;21.20;47.90;;;;;;1574649;75;1874;-64
2021/12/27 01:30:30;;;;;;;;;;;21.30;48.00;;;;;;1574659;75;799;-62
2021/12/27 01:32:37;;;;;;;;;;;21.30;48.00;;;;;;1574544;75;779;-62
2021/12/27 01:34:35;;;;;;;;;;;21.30;48.00;;;;;;1573668;75;1681;-63
2021/12/27 01:36:37;;;;;;;;;;;21.20;47.90;;;;;;1574577;75;1171;-62
2021/12/27 01:38:40;;;;;;;;;;;21.20;47.90;;;;;;1574722;75;808;-62
2021/12/27 01:40:43;;;;;;;;;;;21.30;48.00;;;;;;1574650;75;731;-62
2021/12/27 01:43:03;;;;;;;;;;;21.30;48.00;;;;;;1574437;75;1931;-62
2021/12/27 01:45:05;;;;;;;;;;;21.30;48.10;;;;;;1574673;75;784;-62
2021/12/27 01:47:09;;;;;;;;;;;21.20;47.90;;;;;;1574585;75;1147;-62
2021/12/27 01:49:11;;;;;;;;;;;21.20;47.90;;;;;;1574652;75;705;-62
2021/12/27 01:51:14;;;;;;;;;;;21.20;47.90;;;;;;1574682;75;724;-62
2021/12/27 01:53:16;;;;;;;;;;;21.20;47.90;;;;;;1574529;75;728;-62
2021/12/27 01:55:18;;;;;;;;;;;21.20;47.90;;;;;;1574548;75;810;-62
2021/12/27 01:57:20;;;;;;;;;;;21.30;48.00;;;;;;1549629;75;1069;-63
2021/12/27 01:59:22;;;;;;;;;;;21.30;48.00;;;;;;1547816;77;807;-62
2021/12/27 02:01:24;;;;;;;;;;;21.20;47.80;;;;;;1547981;77;710;-62
2021/12/27 02:03:27;;;;;;;;;;;21.20;47.90;;;;;;1547748;77;1925;-62
2021/12/27 02:05:29;;;;;;;;;;;21.20;47.80;;;;;;1547843;76;1213;-62
2021/12/27 02:07:30;;;;;;;;;;;21.30;48.00;;;;;;1547876;77;739;-62
2021/12/27 02:09:44;;;;;;;;;;;21.30;48.00;;;;;;1547915;77;806;-61
2021/12/27 02:11:36;;;;;;;;;;;21.30;48.00;;;;;;1546300;76;1576;-62
2021/12/27 02:13:42;;;;;;;;;;;21.20;47.80;;;;;;1547881;77;587;-62
2021/12/27 02:15:41;;;;;;;;;;;21.30;48.00;;;;;;1547299;76;1569;-62
2021/12/27 02:17:43;;;;;;;;;;;21.20;47.80;;;;;;1547797;77;718;-62
2021/12/27 02:19:49;;;;;;;;;;;21.20;47.80;;;;;;1547953;76;795;-61
2021/12/27 02:21:51;;;;;;;;;;;21.30;48.00;;;;;;1557270;75;1928;-61
2021/12/27 02:23:54;;;;;;;;;;;21.30;48.00;;;;;;1561160;75;776;-61
2021/12/27 02:25:56;;;;;;;;;;;21.30;48.00;;;;;;1574551;75;1148;-61
2021/12/27 02:27:58;;;;;;;;;;;21.20;47.90;;;;;;1574659;75;752;-62
2021/12/27 02:30:00;;;;;;;;;;;21.20;47.80;;;;;;1574608;75;744;-61
2021/12/27 02:32:02;;;;;;;;;;;21.30;48.00;;;;;;1574646;75;729;-62
2021/12/27 02:34:05;;;;;;;;;;;21.20;47.80;;;;;;1574319;75;753;-61
2021/12/27 02:36:07;;;;;;;;;;;21.30;48.00;;;;;;1561098;75;1190;-64
2021/12/27 02:38:10;;;;;;;;;;;21.20;47.80;;;;;;1554617;75;797;-62
2021/12/27 02:40:11;;;;;;;;;;;21.30;47.90;;;;;;1547850;77;700;-63
2021/12/27 02:42:19;;;;;;;;;;;21.20;47.80;;;;;;1547920;77;1949;-62
2021/12/27 02:44:21;;;;;;;;;;;21.20;47.80;;;;;;1547709;76;799;-63
2021/12/27 02:46:23;;;;;;;;;;;21.20;47.80;;;;;;1547800;77;1133;-62
2021/12/27 02:48:26;;;;;;;;;;;21.20;47.80;;;;;;1547916;77;779;-62
2021/12/27 02:50:28;;;;;;;;;;;21.30;47.90;;;;;;1547960;77;678;-62
2021/12/27 02:52:30;;;;;;;;;;;21.20;47.80;;;;;;1547959;77;742;-63
2021/12/27 02:54:32;;;;;;;;;;;21.20;47.80;;;;;;1547831;77;730;-62
2021/12/27 02:56:35;;;;;;;;;;;21.30;48.00;;;;;;1547869;77;1111;-61
2021/12/27 02:58:36;;;;;;;;;;;21.30;48.00;;;;;;1547823;77;736;-62
2021/12/27 03:00:40;;;;;;;;;;;21.20;47.80;;;;;;1547864;77;706;-63
2021/12/27 03:02:43;;;;;;;;;;;21.20;47.80;;;;;;1559656;75;1934;-62
2021/12/27 03:04:46;;;;;;;;;;;21.30;48.00;;;;;;1574519;75;752;-63
2021/12/27 03:06:48;;;;;;;;;;;21.30;48.00;;;;;;1574533;75;1117;-62
2021/12/27 03:08:49;;;;;;;;;;;21.20;47.80;;;;;;1574683;75;780;-62
2021/12/27 03:10:52;;;;;;;;;;;21.20;47.90;;;;;;1574661;75;637;-63
2021/12/27 03:12:54;;;;;;;;;;;21.20;47.80;;;;;;1574631;75;724;-62
2021/12/27 03:14:56;;;;;;;;;;;21.30;48.00;;;;;;1574606;75;707;-65
2021/12/27 03:16:58;;;;;;;;;;;21.20;47.80;;;;;;1574666;74;1103;-62
2021/12/27 03:19:00;;;;;;;;;;;21.20;47.80;;;;;;1574680;75;787;-62
2021/12/27 03:21:02;;;;;;;;;;;21.20;47.80;;;;;;1574559;75;825;-62
2021/12/27 03:23:04;;;;;;;;;;;21.30;48.00;;;;;;1574562;75;1934;-62
2021/12/27 03:25:07;;;;;;;;;;;21.20;47.80;;;;;;1574571;75;658;-64
2021/12/27 03:27:08;;;;;;;;;;;21.30;47.90;;;;;;1574590;75;1085;-63
2021/12/27 03:29:10;;;;;;;;;;;21.30;48.00;;;;;;1574748;75;914;-62
2021/12/27 03:31:15;;;;;;;;;;;21.20;47.80;;;;;;1574614;75;777;-63
2021/12/27 03:33:16;;;;;;;;;;;21.30;48.00;;;;;;1574458;75;1513;-62
2021/12/27 03:35:25;;;;;;;;;;;21.20;47.80;;;;;;1574447;75;711;-62
2021/12/27 03:37:22;;;;;;;;;;;21.20;47.90;;;;;;1574027;75;1513;-62
2021/12/27 03:39:26;;;;;;;;;;;21.20;47.80;;;;;;1574594;75;786;-63
2021/12/27 03:41:27;;;;;;;;;;;21.20;47.90;;;;;;1574531;75;2081;-62
2021/12/27 03:43:29;;;;;;;;;;;21.20;47.80;;;;;;1574658;75;1935;-63
2021/12/27 03:45:36;;;;;;;;;;;21.20;47.80;;;;;;1574384;75;1156;-63
2021/12/27 03:47:37;;;;;;;;;;;21.20;47.80;;;;;;1574561;75;931;-62
2021/12/27 03:49:39;;;;;;;;;;;21.20;47.80;;;;;;1574657;75;735;-64
2021/12/27 03:51:43;;;;;;;;;;;21.30;47.90;;;;;;1574634;75;707;-62
2021/12/27 03:53:45;;;;;;;;;;;21.30;48.00;;;;;;1574640;75;2010;-62
2021/12/27 03:55:47;;;;;;;;;;;21.30;48.00;;;;;;1570421;75;1113;-62
2021/12/27 03:57:54;;;;;;;;;;;21.20;47.80;;;;;;1547925;77;1049;-63
2021/12/27 04:00:15;;;;;;;;;;;21.20;47.80;;;;;;1546510;76;1407;-63
2021/12/27 04:01:56;;;;;;;;;;;21.30;47.90;;;;;;1544722;77;1628;-62
2021/12/27 04:03:57;;;;;;;;;;;21.30;48.00;;;;;;1547850;77;1929;-62
2021/12/27 04:05:59;;;;;;;;;;;21.20;47.90;;;;;;1547689;76;1110;-62
2021/12/27 04:08:09;;;;;;;;;;;21.30;47.90;;;;;;1547885;77;717;-62
2021/12/27 04:10:05;;;;;;;;;;;21.30;48.00;;;;;;1547135;77;1659;-63
2021/12/27 04:12:08;;;;;;;;;;;21.30;48.00;;;;;;1547758;77;720;-62
2021/12/27 04:14:10;;;;;;;;;;;21.30;47.90;;;;;;1547795;77;804;-62
2021/12/27 04:16:12;;;;;;;;;;;21.30;48.00;;;;;;1547746;77;1150;-62
2021/12/27 04:18:13;;;;;;;;;;;21.20;47.80;;;;;;1547901;77;600;-62
2021/12/27 04:20:15;;;;;;;;;;;21.20;47.80;;;;;;1547891;77;775;-63
2021/12/27 04:22:17;;;;;;;;;;;21.30;47.90;;;;;;1547848;77;790;-62
2021/12/27 04:24:19;;;;;;;;;;;21.30;47.90;;;;;;1547767;77;1929;-61
2021/12/27 04:26:22;;;;;;;;;;;21.30;48.00;;;;;;1547821;76;1149;-62
2021/12/27 04:28:24;;;;;;;;;;;21.20;47.80;;;;;;1547772;77;666;-61
2021/12/27 04:30:26;;;;;;;;;;;21.30;48.00;;;;;;1547801;77;655;-61
2021/12/27 04:32:28;;;;;;;;;;;21.30;47.90;;;;;;1547957;76;728;-62
2021/12/27 04:34:30;;;;;;;;;;;21.30;47.90;;;;;;1547898;77;800;-62
2021/12/27 04:36:32;;;;;;;;;;;21.30;47.90;;;;;;1538429;74;2042;-67
2021/12/27 04:38:34;;;;;;;;;;;21.30;48.00;;;;;;1523099;77;801;-67
2021/12/27 04:40:37;;;;;;;;;;;21.30;47.90;;;;;;1557891;76;718;-66
2021/12/27 04:42:39;;;;;;;;;;;21.30;47.90;;;;;;1557681;76;705;-69
2021/12/27 04:44:41;;;;;;;;;;;21.30;47.90;;;;;;1557815;76;729;-66
2021/12/27 04:46:43;;;;;;;;;;;21.20;47.80;;;;;;1552338;76;1201;-66
2021/12/27 04:48:45;;;;;;;;;;;21.20;47.80;;;;;;1547328;77;722;-68
2021/12/27 04:50:47;;;;;;;;;;;21.30;48.00;;;;;;1539217;77;730;-66
2021/12/27 04:52:52;;;;;;;;;;;21.30;47.90;;;;;;1537894;77;711;-67
2021/12/27 04:54:52;;;;;;;;;;;21.30;47.90;;;;;;1530827;76;1708;-66
2021/12/27 04:56:54;;;;;;;;;;;21.30;47.90;;;;;;1557176;76;1140;-67
2021/12/27 04:58:56;;;;;;;;;;;21.30;47.90;;;;;;1568217;76;662;-67
2021/12/27 05:00:58;;;;;;;;;;;21.30;47.90;;;;;;1568238;76;762;-67
2021/12/27 05:03:00;;;;;;;;;;;21.30;47.90;;;;;;1568193;76;1938;-68
2021/12/27 05:05:02;;;;;;;;;;;21.20;47.80;;;;;;1568104;76;767;-66
2021/12/27 05:07:03;;;;;;;;;;;21.30;48.00;;;;;;1568252;76;1102;-66
2021/12/27 05:09:05;;;;;;;;;;;21.30;48.00;;;;;;1568119;76;786;-66
2021/12/27 05:11:08;;;;;;;;;;;21.30;48.00;;;;;;1568312;76;798;-67
2021/12/27 05:13:10;;;;;;;;;;;21.30;47.90;;;;;;1568169;75;797;-66
2021/12/27 05:15:12;;;;;;;;;;;21.20;47.80;;;;;;1568096;76;795;-66
2021/12/27 05:17:13;;;;;;;;;;;21.20;47.80;;;;;;1568290;76;1120;-67
2021/12/27 05:19:15;;;;;;;;;;;21.30;47.90;;;;;;1568172;76;774;-67
2021/12/27 05:21:17;;;;;;;;;;;21.30;47.90;;;;;;1568167;76;820;-67
2021/12/27 05:23:19;;;;;;;;;;;21.30;48.00;;;;;;1568186;76;1944;-69
2021/12/27 05:25:21;;;;;;;;;;;21.30;48.00;;;;;;1568167;76;806;-69
2021/12/27 05:27:23;;;;;;;;;;;21.30;47.90;;;;;;1568342;76;1109;-66
2021/12/27 05:29:25;;;;;;;;;;;21.20;47.80;;;;;;1568144;76;801;-67
2021/12/27 05:31:27;;;;;;;;;;;21.30;48.00;;;;;;1568236;75;771;-66
2021/12/27 05:33:29;;;;;;;;;;;21.30;48.00;;;;;;1568180;76;783;-69
2021/12/27 05:35:31;;;;;;;;;;;21.30;48.00;;;;;;1568120;76;651;-67
2021/12/27 05:37:32;;;;;;;;;;;21.20;47.80;;;;;;1568145;74;1129;-67
2021/12/27 05:39:34;;;;;;;;;;;21.20;47.80;;;;;;1568201;76;672;-67
2021/12/27 05:41:36;;;;;;;;;;;21.30;47.90;;;;;;1568211;76;729;-68
2021/12/27 05:43:38;;;;;;;;;;;21.30;48.00;;;;;;1568235;76;1916;-67
2021/12/27 05:45:40;;;;;;;;;;;21.20;47.80;;;;;;1568143;76;794;-66
2021/12/27 05:47:42;;;;;;;;;;;21.30;48.00;;;;;;1568193;76;724;-67
2021/12/27 05:49:44;;;;;;;;;;;21.30;48.00;;;;;;1568066;76;753;-66
2021/12/27 05:51:45;;;;;;;;;;;21.30;48.00;;;;;;1568261;76;717;-67
2021/12/27 05:53:47;;;;;;;;;;;21.30;48.00;;;;;;1568262;76;655;-66
2021/12/27 05:55:51;;;;;;;;;;;21.30;48.00;;;;;;1566866;76;1178;-68
2021/12/27 05:57:53;;;;;;;;;;;21.30;47.90;;;;;;1561018;76;735;-66
2021/12/27 05:59:54;;;;;;;;;;;21.30;48.00;;;;;;1560984;76;733;-67
2021/12/27 06:01:56;;;;;;;;;;;21.30;47.90;;;;;;1561177;76;778;-66
2021/12/27 06:03:59;;;;;;;;;;;21.30;47.90;;;;;;1561032;76;1965;-67
2021/12/27 06:06:01;;;;;;;;;;;21.30;47.90;;;;;;1560787;76;1122;-67
2021/12/27 06:08:03;;;;;;;;;;;21.30;47.90;;;;;;1561076;76;733;-67
2021/12/27 06:10:05;;;;;;;;;;;21.20;47.80;;;;;;1560994;76;720;-67
2021/12/27 06:12:07;;;;;;;;;;;21.20;47.80;;;;;;1561020;76;556;-66
2021/12/27 06:14:09;;;;;;;;;;;21.20;47.80;;;;;;1561041;76;665;-67
2021/12/27 06:16:11;;;;;;;;;;;21.20;47.80;;;;;;1560962;76;1128;-66
2021/12/27 06:18:13;;;;;;;;;;;21.30;47.90;;;;;;1560991;76;687;-67
2021/12/27 06:20:15;;;;;;;;;;;21.20;47.80;;;;;;1561018;76;786;-69
2021/12/27 06:22:17;;;;;;;;;;;21.30;47.90;;;;;;1560996;76;790;-67
2021/12/27 06:24:19;;;;;;;;;;;21.30;47.90;;;;;;1561047;76;1938;-67
2021/12/27 06:26:22;;;;;;;;;;;21.30;48.00;;;;;;1560829;76;1140;-65
2021/12/27 06:28:24;;;;;;;;;;;21.30;47.90;;;;;;1561047;76;722;-66
2021/12/27 06:30:26;;;;;;;;;;;21.30;47.90;;;;;;1561142;76;754;-67
2021/12/27 06:32:28;;;;;;;;;;;21.30;47.90;;;;;;1561043;76;725;-66
2021/12/27 06:34:30;;;;;;;;;;;21.30;47.90;;;;;;1561121;76;712;-67
2021/12/27 06:36:32;;;;;;;;;;;21.30;47.90;;;;;;1560938;76;1196;-67
2021/12/27 06:38:34;;;;;;;;;;;21.30;47.90;;;;;;1561029;76;799;-67
2021/12/27 06:40:36;;;;;;;;;;;21.20;47.80;;;;;;1561009;76;810;-69
2021/12/27 06:42:38;;;;;;;;;;;21.20;47.80;;;;;;1560997;76;666;-67
2021/12/27 06:44:39;;;;;;;;;;;21.30;47.90;;;;;;1561028;76;1932;-67
2021/12/27 06:46:41;;;;;;;;;;;21.30;47.90;;;;;;1560883;76;1228;-67
2021/12/27 06:48:43;;;;;;;;;;;21.30;47.90;;;;;;1561078;76;702;-66
2021/12/27 06:50:45;;;;;;;;;;;21.30;47.90;;;;;;1561068;76;791;-66
2021/12/27 06:52:47;;;;;;;;;;;21.20;47.80;;;;;;1561027;76;656;-68
2021/12/27 06:54:49;;;;;;;;;;;21.30;47.90;;;;;;1561086;76;749;-68
2021/12/27 06:56:51;;;;;;;;;;;21.30;48.00;;;;;;1560875;76;1137;-66
2021/12/27 06:58:52;;;;;;;;;;;21.20;47.80;;;;;;1561073;76;777;-66
2021/12/27 07:00:54;;;;;;;;;;;21.30;47.90;;;;;;1561013;76;804;-66
2021/12/27 07:02:56;;;;;;;;;;;21.30;48.00;;;;;;1564899;76;892;-67
2021/12/27 07:04:58;;;;;;;;;;;21.30;48.00;;;;;;1568124;76;1955;-66
2021/12/27 07:07:00;;;;;;;;;;;21.30;47.90;;;;;;1568128;76;1128;-67
2021/12/27 07:09:04;;;;;;;;;;;21.30;48.00;;;;;;1568322;76;631;-67
2021/12/27 07:11:06;;;;;;;;;;;21.30;47.90;;;;;;1568133;75;1656;-69
2021/12/27 07:13:09;;;;;;;;;;;21.30;47.90;;;;;;1568144;75;732;-68
2021/12/27 07:15:11;;;;;;;;;;;21.30;47.90;;;;;;1568088;76;809;-67
2021/12/27 07:17:13;;;;;;;;;;;21.20;47.80;;;;;;1568113;76;1147;-66
2021/12/27 07:19:15;;;;;;;;;;;21.30;48.00;;;;;;1568257;76;701;-67
2021/12/27 07:21:17;;;;;;;;;;;21.20;47.80;;;;;;1568252;76;642;-66
2021/12/27 07:23:18;;;;;;;;;;;21.20;47.80;;;;;;1568124;76;725;-68
2021/12/27 07:25:20;;;;;;;;;;;21.20;47.80;;;;;;1568079;76;1938;-66
2021/12/27 07:27:22;;;;;;;;;;;21.20;47.80;;;;;;1568133;76;1069;-66
2021/12/27 07:29:24;;;;;;;;;;;21.20;47.80;;;;;;1568260;76;854;-67
2021/12/27 07:31:26;;;;;;;;;;;21.20;47.80;;;;;;1568201;76;733;-67
2021/12/27 07:33:28;;;;;;;;;;;21.20;47.80;;;;;;1568146;76;720;-67
2021/12/27 07:35:30;;;;;;;;;;;21.20;47.80;;;;;;1568153;76;724;-67
2021/12/27 07:37:32;;;;;;;;;;;21.30;47.90;;;;;;1568126;76;1152;-67
2021/12/27 07:39:34;;;;;;;;;;;21.20;47.80;;;;;;1568147;76;817;-67
2021/12/27 07:41:35;;;;;;;;;;;21.30;47.90;;;;;;1568214;76;725;-69
2021/12/27 07:43:37;;;;;;;;;;;21.20;47.80;;;;;;1568097;76;739;-66
2021/12/27 07:45:39;;;;;;;;;;;21.20;47.80;;;;;;1568044;76;1944;-67
2021/12/27 07:47:41;;;;;;;;;;;21.20;47.80;;;;;;1568209;76;768;-67
2021/12/27 07:49:43;;;;;;;;;;;21.20;47.70;;;;;;1568259;76;721;-67
2021/12/27 07:51:45;;;;;;;;;;;21.20;47.80;;;;;;1568227;76;789;-66
2021/12/27 07:53:47;;;;;;;;;;;21.20;47.80;;;;;;1568104;76;656;-67
2021/12/27 07:55:49;;;;;;;;;;;21.30;47.80;;;;;;1568186;76;1101;-67
2021/12/27 07:57:50;;;;;;;;;;;21.20;47.80;;;;;;1568295;76;781;-69
2021/12/27 07:59:52;;;;;;;;;;;21.30;47.90;;;;;;1568092;76;751;-66
2021/12/27 08:01:54;;;;;;;;;;;21.20;47.80;;;;;;1567800;75;764;-66
2021/12/27 08:03:56;;;;;;;;;;;21.30;47.90;;;;;;1560888;76;1936;-66
2021/12/27 08:05:58;;;;;;;;;;;21.30;47.90;;;;;;1560928;76;1137;-66
2021/12/27 08:08:00;;;;;;;;;;;21.30;47.90;;;;;;1561081;76;759;-66
2021/12/27 08:10:02;;;;;;;;;;;21.20;47.80;;;;;;1560923;76;661;-67
2021/12/27 08:12:04;;;;;;;;;;;21.30;47.90;;;;;;1560957;76;712;-67
2021/12/27 08:14:06;;;;;;;;;;;21.30;47.90;;;;;;1560915;76;662;-67
2021/12/27 08:16:10;;;;;;;;;;;21.30;47.90;;;;;;1560909;76;1121;-67
2021/12/27 08:18:12;;;;;;;;;;;21.20;47.80;;;;;;1560318;76;1530;-66
2021/12/27 08:20:13;;;;;;;;;;;21.30;47.90;;;;;;1560970;76;741;-67
2021/12/27 08:22:15;;;;;;;;;;;21.30;48.00;;;;;;1560918;76;708;-66
2021/12/27 08:24:17;;;;;;;;;;;21.30;48.00;;;;;;1560886;76;1921;-66
2021/12/27 08:26:19;;;;;;;;;;;21.30;47.90;;;;;;1560965;76;1145;-66
2021/12/27 08:28:21;;;;;;;;;;;21.20;47.80;;;;;;1560987;76;690;-67
2021/12/27 08:30:23;;;;;;;;;;;21.20;47.80;;;;;;1560997;76;653;-67
2021/12/27 08:32:25;;;;;;;;;;;21.20;47.80;;;;;;1561164;76;793;-67
2021/12/27 08:34:29;;;;;;;;;;;21.30;48.00;;;;;;1561169;76;735;-68
2021/12/27 08:36:30;;;;;;;;;;;21.20;47.80;;;;;;1560907;76;1977;-66
2021/12/27 08:38:32;;;;;;;;;;;21.30;47.90;;;;;;1561122;76;771;-67
2021/12/27 08:40:34;;;;;;;;;;;21.20;47.80;;;;;;1560987;76;666;-66
2021/12/27 08:42:36;;;;;;;;;;;21.30;47.90;;;;;;1561027;76;710;-66
2021/12/27 08:44:38;;;;;;;;;;;21.30;47.90;;;;;;1560951;76;1947;-67
2021/12/27 08:46:40;;;;;;;;;;;21.30;47.90;;;;;;1560919;76;1149;-66
2021/12/27 08:48:43;;;;;;;;;;;21.30;48.00;;;;;;1561008;76;774;-67
2021/12/27 08:50:45;;;;;;;;;;;21.30;48.00;;;;;;1561082;76;729;-67
2021/12/27 08:52:47;;;;;;;;;;;21.30;47.90;;;;;;1561135;76;772;-67
2021/12/27 08:54:49;;;;;;;;;;;21.30;47.90;;;;;;1560931;76;805;-66
2021/12/27 08:56:51;;;;;;;;;;;21.30;47.90;;;;;;1565161;76;1122;-66
2021/12/27 08:58:54;;;;;;;;;;;21.20;47.80;;;;;;1568310;76;774;-66
2021/12/27 09:00:57;;;;;;;;;;;21.20;47.80;;;;;;1568055;76;621;-65
2021/12/27 09:02:58;;;;;;;;;;;21.30;47.90;;;;;;1568220;76;778;-68
2021/12/27 09:05:00;;;;;;;;;;;21.30;47.90;;;;;;1568024;75;1936;-67
2021/12/27 09:07:02;;;;;;;;;;;21.30;47.90;;;;;;1568287;76;1105;-66
2021/12/27 09:09:04;;;;;;;;;;;21.20;47.80;;;;;;1568363;76;713;-67
2021/12/27 09:11:06;;;;;;;;;;;21.20;47.80;;;;;;1568203;76;795;-67
2021/12/27 09:13:08;;;;;;;;;;;21.30;47.90;;;;;;1568298;76;774;-66
2021/12/27 09:15:10;;;;;;;;;;;21.30;47.90;;;;;;1568121;76;728;-67
2021/12/27 09:17:12;;;;;;;;;;;21.30;47.90;;;;;;1568186;76;1097;-66
2021/12/27 09:19:14;;;;;;;;;;;21.30;47.90;;;;;;1568288;75;725;-67
2021/12/27 09:21:16;;;;;;;;;;;21.30;47.90;;;;;;1568138;76;838;-66
2021/12/27 09:23:18;;;;;;;;;;;21.20;47.80;;;;;;1568322;76;718;-67
2021/12/27 09:25:20;;;;;;;;;;;21.30;47.90;;;;;;1568103;76;1936;-67
2021/12/27 09:27:22;;;;;;;;;;;21.30;48.00;;;;;;1568215;76;1083;-67
2021/12/27 09:29:24;;;;;;;;;;;21.30;47.90;;;;;;1568259;76;781;-66
2021/12/27 09:31:26;;;;;;;;;;;21.30;47.90;;;;;;1568144;76;780;-66
2021/12/27 09:33:28;;;;;;;;;;;21.30;47.90;;;;;;1568208;75;772;-66
2021/12/27 09:35:29;;;;;;;;;;;21.30;47.90;;;;;;1568174;76;795;-67
2021/12/27 09:37:31;;;;;;;;;;;21.30;47.90;;;;;;1568180;76;1131;-66
2021/12/27 09:39:33;;;;;;;;;;;21.30;48.00;;;;;;1568283;76;697;-67
2021/12/27 09:41:35;;;;;;;;;;;21.30;47.90;;;;;;1568138;76;734;-69
2021/12/27 09:43:37;;;;;;;;;;;21.30;47.90;;;;;;1568190;76;761;-67
2021/12/27 09:45:39;;;;;;;;;;;21.30;47.90;;;;;;1568201;76;1943;-66
2021/12/27 09:47:42;;;;;;;;;;;21.30;47.80;;;;;;1568207;76;1156;-66
2021/12/27 09:49:44;;;;;;;;;;;21.30;47.90;;;;;;1568163;76;750;-69
2021/12/27 09:51:46;;;;;;;;;;;21.30;47.90;;;;;;1568112;76;797;-68
2021/12/27 09:53:48;;;;;;;;;;;21.30;47.90;;;;;;1568208;75;768;-70
2021/12/27 09:55:51;;;;;;;;;;;21.30;47.90;;;;;;1567607;75;1136;-66
2021/12/27 09:57:53;;;;;;;;;;;21.30;47.90;;;;;;1560905;76;729;-67
2021/12/27 09:59:55;;;;;;;;;;;21.30;47.90;;;;;;1560930;76;652;-67
2021/12/27 10:01:57;;;;;;;;;;;21.30;47.90;;;;;;1561028;76;787;-67
2021/12/27 10:03:59;;;;;;;;;;;21.30;47.90;;;;;;1561025;76;668;-67
2021/12/27 10:06:05;;;;;;;;;;;21.30;47.80;;;;;;1560862;76;1934;-67
2021/12/27 10:08:07;;;;;;;;;;;21.30;47.80;;;;;;1555971;76;1617;-66
2021/12/27 10:10:10;;;;;;;;;;;21.40;47.80;;;;;;1561076;76;735;-67
2021/12/27 10:12:12;;;;;;;;;;;21.30;47.80;;;;;;1560969;76;655;-66
2021/12/27 10:14:18;;;;;;;;;;;21.30;47.80;;;;;;1541495;77;1152;-66
2021/12/27 10:16:20;;;;;;;;;;;21.40;47.90;;;;;;1595760;74;1069;-66
2021/12/27 10:18:22;;;;;;;;;;;21.30;47.80;;;;;;1596738;74;776;-67
2021/12/27 10:20:28;;;;;;;;;;;21.40;47.80;;;;;;1596710;74;668;-67
2021/12/27 10:22:30;;;;;;;;;;;21.40;47.90;;;;;;1596715;74;578;-66
2021/12/27 10:24:32;;;;;;;;;;;21.40;47.80;;;;;;1596887;74;687;-67
2021/12/27 10:26:34;;;;;;;;;;;21.40;47.80;;;;;;1596690;74;1936;-67
2021/12/27 10:28:36;;;;;;;;;;;21.40;47.80;;;;;;1596652;74;770;-67
2021/12/27 10:30:40;;;;;;;;;;;21.30;47.80;;;;;;1596805;74;733;-69
2021/12/27 10:32:42;;;;;;;;;;;21.40;47.80;;;;;;1596681;74;2067;-66
2021/12/27 10:34:47;;;;;;;;;;;21.40;47.80;;;;;;1596810;74;807;-67
2021/12/27 10:37:08;;;;;;;;;;;21.40;47.90;;;;;;1593294;72;2079;-64
2021/12/27 10:39:10;;;;;;;;;;;21.40;47.80;;;;;;1554982;76;799;-65
2021/12/27 10:41:13;;;;;;;;;;;21.30;47.80;;;;;;1613520;74;744;-65
2021/12/27 10:43:16;;;;;;;;;;;21.40;47.80;;;;;;1613347;74;770;-67
2021/12/27 10:45:19;;;;;;;;;;;21.40;47.80;;;;;;1613342;74;1928;-65
2021/12/27 10:47:26;;;;;;;;;;;21.40;47.80;;;;;;1598293;74;1187;-66
2021/12/27 10:49:46;;;;;;;;;;;21.40;47.80;;;;;;1584946;75;733;-64
2021/12/27 10:51:48;;;;;;;;;;;21.40;47.80;;;;;;1585190;75;755;-66
2021/12/27 10:53:51;;;;;;;;;;;21.40;47.90;;;;;;1570694;75;668;-64
2021/12/27 10:55:54;;;;;;;;;;;21.40;47.90;;;;;;1560839;76;759;-65
2021/12/27 10:57:57;;;;;;;;;;;21.40;47.80;;;;;;1558433;76;1142;-66
2021/12/27 11:00:19;;;;;;;;;;;21.30;47.80;;;;;;1530731;76;1109;-65
2021/12/27 11:02:21;;;;;;;;;;;21.40;47.80;;;;;;1553598;76;838;-65
2021/12/27 11:04:23;;;;;;;;;;;21.40;47.80;;;;;;1558460;76;719;-65
2021/12/27 11:06:26;;;;;;;;;;;21.30;47.90;;;;;;1558368;76;1950;-65
2021/12/27 11:08:28;;;;;;;;;;;21.40;47.80;;;;;;1558463;76;672;-65
2021/12/27 11:10:30;;;;;;;;;;;21.40;47.80;;;;;;1558406;76;826;-65
2021/12/27 11:12:32;;;;;;;;;;;21.40;47.80;;;;;;1558500;76;758;-66
2021/12/27 11:14:34;;;;;;;;;;;21.40;47.80;;;;;;1558431;76;804;-65
2021/12/27 11:16:35;;;;;;;;;;;21.40;47.80;;;;;;1558378;75;1113;-66
2021/12/27 11:18:37;;;;;;;;;;;21.40;47.80;;;;;;1558560;76;668;-65
2021/12/27 11:20:41;;;;;;;;;;;21.40;47.80;;;;;;1558475;76;789;-66
2021/12/27 11:22:43;;;;;;;;;;;21.40;47.80;;;;;;1558470;76;1988;-65
2021/12/27 11:24:45;;;;;;;;;;;21.40;47.80;;;;;;1558314;76;715;-65
2021/12/27 11:26:47;;;;;;;;;;;21.40;47.80;;;;;;1558346;76;1943;-65
2021/12/27 11:28:49;;;;;;;;;;;21.40;47.80;;;;;;1558467;76;792;-65
2021/12/27 11:30:51;;;;;;;;;;;21.40;47.80;;;;;;1558504;76;793;-66
2021/12/27 11:33:06;;;;;;;;;;;21.40;47.80;;;;;;1558565;76;727;-65
2021/12/27 11:35:10;;;;;;;;;;;21.40;47.70;;;;;;1558283;76;722;-66
2021/12/27 11:37:11;;;;;;;;;;;21.40;47.80;;;;;;1558034;75;1463;-66
2021/12/27 11:39:25;;;;;;;;;;;21.40;47.80;;;;;;1558566;76;683;-66
2021/12/27 11:41:28;;;;;;;;;;;21.40;47.80;;;;;;1557623;76;1536;-65
2021/12/27 11:43:49;;;;;;;;;;;21.40;47.80;;;;;;1558558;76;615;-67
2021/12/27 11:45:54;;;;;;;;;;;21.40;47.80;;;;;;1558314;76;1920;-67
2021/12/27 11:48:08;;;;;;;;;;;21.40;47.80;;;;;;1558474;76;1098;-66
2021/12/27 11:50:14;;;;;;;;;;;21.40;47.80;;;;;;1558471;76;694;-66
2021/12/27 11:52:31;;;;;;;;;;;21.40;47.80;;;;;;1557782;76;1589;-66
2021/12/27 11:54:33;;;;;;;;;;;21.40;47.80;;;;;;1556470;76;1572;-66
2021/12/27 11:56:44;;;;;;;;;;;21.40;47.80;;;;;;1558239;76;1103;-65
2021/12/27 11:58:46;;;;;;;;;;;21.40;47.80;;;;;;1558455;76;694;-67
2021/12/27 12:00:48;;;;;;;;;;;21.50;47.90;;;;;;1558359;76;798;-66
2021/12/27 12:02:52;;;;;;;;;;;21.40;47.80;;;;;;1560315;76;726;-66
2021/12/27 12:04:55;;;;;;;;;;;21.50;47.90;;;;;;1562533;75;1854;-66
2021/12/27 12:06:56;;;;;;;;;;;21.40;47.80;;;;;;1562972;76;1927;-65
2021/12/27 12:08:58;;;;;;;;;;;21.50;47.90;;;;;;1563380;76;715;-66
2021/12/27 12:11:04;;;;;;;;;;;21.40;47.80;;;;;;1563252;76;706;-67
2021/12/27 12:13:17;;;;;;;;;;;21.40;47.80;;;;;;1563304;76;694;-66
2021/12/27 12:15:19;;;;;;;;;;;21.40;47.80;;;;;;1563229;75;714;-66